sensor_id;sensor_type;location;lat;lon;timestamp;P1;durP1;ratioP1;P2;durP2;ratioP2
13185;SDS011;6658;53.080;7.428;2023-05-14T00:02:12;8.23;;;7.40;;
13185;SDS011;6658;53.080;7.428;2023-05-14T00:04:37;10.97;;;8.33;;
13185;SDS011;6658;53.080;7.428;2023-05-14T00:07:03;9.67;;;8.67;;
13185;SDS011;6658;53.080;7.428;2023-05-14T00:09:30;9.67;;;8.30;;
13185;SDS011;6658;53.080;7.428;2023-05-14T00:11:56;9.53;;;8.60;;
13185;SDS011;6658;53.080;7.428;2023-05-14T00:14:22;9.27;;;8.33;;
13185;SDS011;6658;53.080;7.428;2023-05-14T00:16:48;10.37;;;9.20;;
13185;SDS011;6658;53.080;7.428;2023-05-14T00:19:14;9.40;;;8.40;;
13185;SDS011;6658;53.080;7.428;2023-05-14T00:21:39;9.10;;;8.20;;
13185;SDS011;6658;53.080;7.428;2023-05-14T00:24:05;9.70;;;8.40;;
13185;SDS011;6658;53.080;7.428;2023-05-14T00:26:31;10.00;;;8.70;;
13185;SDS011;6658;53.080;7.428;2023-05-14T00:28:56;10.23;;;9.23;;
13185;SDS011;6658;53.080;7.428;2023-05-14T00:31:22;11.23;;;8.77;;
13185;SDS011;6658;53.080;7.428;2023-05-14T00:33:48;9.60;;;8.70;;
13185;SDS011;6658;53.080;7.428;2023-05-14T00:36:13;10.23;;;8.90;;
13185;SDS011;6658;53.080;7.428;2023-05-14T00:38:39;10.73;;;9.13;;
13185;SDS011;6658;53.080;7.428;2023-05-14T00:41:05;11.73;;;9.37;;
13185;SDS011;6658;53.080;7.428;2023-05-14T00:43:30;10.23;;;9.20;;
13185;SDS011;6658;53.080;7.428;2023-05-14T00:45:57;11.47;;;9.40;;
13185;SDS011;6658;53.080;7.428;2023-05-14T00:48:23;10.27;;;9.20;;
13185;SDS011;6658;53.080;7.428;2023-05-14T00:50:49;13.63;;;10.17;;
13185;SDS011;6658;53.080;7.428;2023-05-14T00:53:16;10.63;;;9.53;;
13185;SDS011;6658;53.080;7.428;2023-05-14T00:55:43;11.17;;;9.60;;
13185;SDS011;6658;53.080;7.428;2023-05-14T00:58:11;14.43;;;11.03;;
13185;SDS011;6658;53.080;7.428;2023-05-14T01:00:38;11.87;;;10.63;;
13185;SDS011;6658;53.080;7.428;2023-05-14T01:03:05;10.80;;;9.70;;
13185;SDS011;6658;53.080;7.428;2023-05-14T01:11:35;11.17;;;10.03;;
13185;SDS011;6658;53.080;7.428;2023-05-14T01:16:51;11.00;;;9.43;;
13185;SDS011;6658;53.080;7.428;2023-05-14T01:19:41;11.07;;;9.63;;
13185;SDS011;6658;53.080;7.428;2023-05-14T01:22:08;12.30;;;9.73;;
13185;SDS011;6658;53.080;7.428;2023-05-14T01:24:34;11.10;;;10.00;;
13185;SDS011;6658;53.080;7.428;2023-05-14T01:27:24;11.33;;;10.23;;
13185;SDS011;6658;53.080;7.428;2023-05-14T01:30:06;10.60;;;9.60;;
13185;SDS011;6658;53.080;7.428;2023-05-14T01:32:47;11.70;;;10.47;;
13185;SDS011;6658;53.080;7.428;2023-05-14T01:35:15;13.00;;;10.07;;
13185;SDS011;6658;53.080;7.428;2023-05-14T01:37:41;11.10;;;9.97;;
13185;SDS011;6658;53.080;7.428;2023-05-14T01:40:08;11.43;;;10.30;;
13185;SDS011;6658;53.080;7.428;2023-05-14T01:42:35;12.17;;;11.00;;
13185;SDS011;6658;53.080;7.428;2023-05-14T01:45:02;11.13;;;9.87;;
13185;SDS011;6658;53.080;7.428;2023-05-14T01:47:28;11.73;;;9.80;;
13185;SDS011;6658;53.080;7.428;2023-05-14T01:49:54;11.43;;;10.23;;
13185;SDS011;6658;53.080;7.428;2023-05-14T01:52:20;12.17;;;10.43;;
13185;SDS011;6658;53.080;7.428;2023-05-14T01:54:46;12.43;;;11.07;;
13185;SDS011;6658;53.080;7.428;2023-05-14T01:57:12;11.60;;;10.43;;
13185;SDS011;6658;53.080;7.428;2023-05-14T01:59:38;12.80;;;10.93;;
13185;SDS011;6658;53.080;7.428;2023-05-14T02:02:03;11.53;;;10.43;;
13185;SDS011;6658;53.080;7.428;2023-05-14T02:04:29;12.47;;;11.27;;
13185;SDS011;6658;53.080;7.428;2023-05-14T02:06:55;10.83;;;9.83;;
13185;SDS011;6658;53.080;7.428;2023-05-14T02:09:21;12.07;;;10.83;;
13185;SDS011;6658;53.080;7.428;2023-05-14T02:11:46;11.50;;;10.30;;
13185;SDS011;6658;53.080;7.428;2023-05-14T02:14:12;12.47;;;11.10;;
13185;SDS011;6658;53.080;7.428;2023-05-14T02:16:39;11.37;;;10.27;;
13185;SDS011;6658;53.080;7.428;2023-05-14T02:19:05;11.50;;;10.40;;
13185;SDS011;6658;53.080;7.428;2023-05-14T02:21:31;11.83;;;10.63;;
13185;SDS011;6658;53.080;7.428;2023-05-14T02:23:57;12.63;;;10.50;;
13185;SDS011;6658;53.080;7.428;2023-05-14T02:26:22;11.37;;;10.30;;
13185;SDS011;6658;53.080;7.428;2023-05-14T02:28:48;12.00;;;10.80;;
13185;SDS011;6658;53.080;7.428;2023-05-14T02:31:14;12.40;;;10.70;;
13185;SDS011;6658;53.080;7.428;2023-05-14T02:33:41;12.37;;;11.07;;
13185;SDS011;6658;53.080;7.428;2023-05-14T02:36:07;11.90;;;10.77;;
13185;SDS011;6658;53.080;7.428;2023-05-14T02:38:33;12.57;;;11.30;;
13185;SDS011;6658;53.080;7.428;2023-05-14T02:40:58;11.87;;;10.77;;
13185;SDS011;6658;53.080;7.428;2023-05-14T02:43:24;11.90;;;10.63;;
13185;SDS011;6658;53.080;7.428;2023-05-14T02:45:50;13.93;;;11.60;;
13185;SDS011;6658;53.080;7.428;2023-05-14T02:48:15;12.33;;;11.13;;
13185;SDS011;6658;53.080;7.428;2023-05-14T02:50:41;12.83;;;11.70;;
13185;SDS011;6658;53.080;7.428;2023-05-14T02:53:07;13.27;;;12.03;;
13185;SDS011;6658;53.080;7.428;2023-05-14T02:55:32;12.87;;;11.57;;
13185;SDS011;6658;53.080;7.428;2023-05-14T02:57:59;13.30;;;11.90;;
13185;SDS011;6658;53.080;7.428;2023-05-14T03:00:25;13.10;;;11.87;;
13185;SDS011;6658;53.080;7.428;2023-05-14T03:02:50;14.50;;;13.10;;
13185;SDS011;6658;53.080;7.428;2023-05-14T03:05:16;13.80;;;12.50;;
13185;SDS011;6658;53.080;7.428;2023-05-14T03:07:42;15.63;;;12.50;;
13185;SDS011;6658;53.080;7.428;2023-05-14T03:10:07;13.90;;;12.60;;
13185;SDS011;6658;53.080;7.428;2023-05-14T03:12:33;14.07;;;12.63;;
13185;SDS011;6658;53.080;7.428;2023-05-14T03:14:59;13.10;;;11.80;;
13185;SDS011;6658;53.080;7.428;2023-05-14T03:17:25;14.23;;;12.83;;
13185;SDS011;6658;53.080;7.428;2023-05-14T03:19:50;14.63;;;13.27;;
13185;SDS011;6658;53.080;7.428;2023-05-14T03:22:16;14.03;;;12.27;;
13185;SDS011;6658;53.080;7.428;2023-05-14T03:24:42;16.30;;;13.27;;
13185;SDS011;6658;53.080;7.428;2023-05-14T03:27:07;16.97;;;13.83;;
13185;SDS011;6658;53.080;7.428;2023-05-14T03:29:33;14.73;;;12.93;;
13185;SDS011;6658;53.080;7.428;2023-05-14T03:31:59;15.97;;;13.97;;
13185;SDS011;6658;53.080;7.428;2023-05-14T03:34:25;15.77;;;14.27;;
13185;SDS011;6658;53.080;7.428;2023-05-14T03:36:50;16.37;;;13.53;;
13185;SDS011;6658;53.080;7.428;2023-05-14T03:39:16;15.03;;;13.53;;
13185;SDS011;6658;53.080;7.428;2023-05-14T03:41:45;15.40;;;13.90;;
13185;SDS011;6658;53.080;7.428;2023-05-14T03:44:11;14.40;;;13.00;;
13185;SDS011;6658;53.080;7.428;2023-05-14T03:46:37;14.10;;;12.50;;
13185;SDS011;6658;53.080;7.428;2023-05-14T03:49:03;14.70;;;13.20;;
13185;SDS011;6658;53.080;7.428;2023-05-14T03:51:29;14.80;;;13.47;;
13185;SDS011;6658;53.080;7.428;2023-05-14T03:53:55;16.70;;;14.53;;
13185;SDS011;6658;53.080;7.428;2023-05-14T03:56:22;14.93;;;13.43;;
13185;SDS011;6658;53.080;7.428;2023-05-14T03:58:48;15.53;;;13.93;;
13185;SDS011;6658;53.080;7.428;2023-05-14T04:01:14;18.67;;;15.57;;
13185;SDS011;6658;53.080;7.428;2023-05-14T04:03:40;14.27;;;12.97;;
13185;SDS011;6658;53.080;7.428;2023-05-14T04:06:06;15.40;;;12.97;;
13185;SDS011;6658;53.080;7.428;2023-05-14T04:08:31;15.60;;;12.80;;
13185;SDS011;6658;53.080;7.428;2023-05-14T04:10:57;14.67;;;13.10;;
13185;SDS011;6658;53.080;7.428;2023-05-14T04:13:23;13.90;;;12.50;;
13185;SDS011;6658;53.080;7.428;2023-05-14T04:15:49;15.03;;;13.03;;
13185;SDS011;6658;53.080;7.428;2023-05-14T04:18:14;15.03;;;13.63;;
13185;SDS011;6658;53.080;7.428;2023-05-14T04:20:41;17.47;;;13.30;;
13185;SDS011;6658;53.080;7.428;2023-05-14T04:23:07;14.30;;;12.17;;
13185;SDS011;6658;53.080;7.428;2023-05-14T04:25:32;13.07;;;11.87;;
13185;SDS011;6658;53.080;7.428;2023-05-14T04:27:58;14.00;;;12.70;;
13185;SDS011;6658;53.080;7.428;2023-05-14T04:30:24;14.43;;;12.93;;
13185;SDS011;6658;53.080;7.428;2023-05-14T04:32:50;14.00;;;12.63;;
13185;SDS011;6658;53.080;7.428;2023-05-14T04:35:16;13.80;;;12.40;;
13185;SDS011;6658;53.080;7.428;2023-05-14T04:37:41;13.20;;;12.00;;
13185;SDS011;6658;53.080;7.428;2023-05-14T04:40:07;14.37;;;12.87;;
13185;SDS011;6658;53.080;7.428;2023-05-14T04:42:35;12.93;;;11.07;;
13185;SDS011;6658;53.080;7.428;2023-05-14T04:45:01;13.07;;;11.33;;
13185;SDS011;6658;53.080;7.428;2023-05-14T04:47:29;12.37;;;11.27;;
13185;SDS011;6658;53.080;7.428;2023-05-14T04:49:55;14.70;;;12.50;;
13185;SDS011;6658;53.080;7.428;2023-05-14T04:52:21;13.50;;;12.00;;
13185;SDS011;6658;53.080;7.428;2023-05-14T04:54:47;13.43;;;11.77;;
13185;SDS011;6658;53.080;7.428;2023-05-14T04:57:13;13.10;;;11.80;;
13185;SDS011;6658;53.080;7.428;2023-05-14T04:59:39;12.33;;;11.13;;
13185;SDS011;6658;53.080;7.428;2023-05-14T05:02:05;12.40;;;11.10;;
13185;SDS011;6658;53.080;7.428;2023-05-14T05:04:31;13.20;;;11.90;;
13185;SDS011;6658;53.080;7.428;2023-05-14T05:06:56;13.03;;;11.43;;
13185;SDS011;6658;53.080;7.428;2023-05-14T05:09:22;11.90;;;10.80;;
13185;SDS011;6658;53.080;7.428;2023-05-14T05:11:48;11.90;;;10.50;;
13185;SDS011;6658;53.080;7.428;2023-05-14T05:14:13;11.63;;;10.43;;
13185;SDS011;6658;53.080;7.428;2023-05-14T05:16:39;11.43;;;10.40;;
13185;SDS011;6658;53.080;7.428;2023-05-14T05:19:05;10.83;;;9.77;;
13185;SDS011;6658;53.080;7.428;2023-05-14T05:21:30;10.50;;;9.40;;
13185;SDS011;6658;53.080;7.428;2023-05-14T05:23:56;9.87;;;8.87;;
13185;SDS011;6658;53.080;7.428;2023-05-14T05:26:23;10.27;;;9.10;;
13185;SDS011;6658;53.080;7.428;2023-05-14T05:28:50;9.43;;;8.63;;
13185;SDS011;6658;53.080;7.428;2023-05-14T05:31:16;9.97;;;9.00;;
13185;SDS011;6658;53.080;7.428;2023-05-14T05:33:42;9.63;;;8.80;;
13185;SDS011;6658;53.080;7.428;2023-05-14T05:36:08;8.10;;;7.40;;
13185;SDS011;6658;53.080;7.428;2023-05-14T05:38:34;8.47;;;7.77;;
13185;SDS011;6658;53.080;7.428;2023-05-14T05:40:59;8.43;;;7.27;;
13185;SDS011;6658;53.080;7.428;2023-05-14T05:43:25;8.30;;;7.50;;
13185;SDS011;6658;53.080;7.428;2023-05-14T05:45:52;7.77;;;7.03;;
13185;SDS011;6658;53.080;7.428;2023-05-14T05:48:18;8.23;;;7.43;;
13185;SDS011;6658;53.080;7.428;2023-05-14T05:50:45;8.07;;;7.30;;
13185;SDS011;6658;53.080;7.428;2023-05-14T05:53:13;7.97;;;7.17;;
13185;SDS011;6658;53.080;7.428;2023-05-14T05:55:40;8.00;;;7.30;;
13185;SDS011;6658;53.080;7.428;2023-05-14T05:58:06;8.47;;;6.63;;
13185;SDS011;6658;53.080;7.428;2023-05-14T06:00:32;7.40;;;6.70;;
13185;SDS011;6658;53.080;7.428;2023-05-14T06:02:58;7.17;;;6.53;;
13185;SDS011;6658;53.080;7.428;2023-05-14T06:05:25;7.67;;;6.97;;
13185;SDS011;6658;53.080;7.428;2023-05-14T06:07:50;7.50;;;6.83;;
13185;SDS011;6658;53.080;7.428;2023-05-14T06:10:20;9.27;;;7.03;;
13185;SDS011;6658;53.080;7.428;2023-05-14T06:12:46;7.03;;;6.40;;
13185;SDS011;6658;53.080;7.428;2023-05-14T06:15:11;7.43;;;6.73;;
13185;SDS011;6658;53.080;7.428;2023-05-14T06:17:37;7.50;;;6.77;;
13185;SDS011;6658;53.080;7.428;2023-05-14T06:20:03;6.77;;;6.27;;
13185;SDS011;6658;53.080;7.428;2023-05-14T06:22:29;7.70;;;7.00;;
13185;SDS011;6658;53.080;7.428;2023-05-14T06:24:55;6.80;;;6.20;;
13185;SDS011;6658;53.080;7.428;2023-05-14T06:27:21;7.20;;;6.50;;
13185;SDS011;6658;53.080;7.428;2023-05-14T06:29:47;7.43;;;6.23;;
13185;SDS011;6658;53.080;7.428;2023-05-14T06:32:12;6.77;;;6.27;;
13185;SDS011;6658;53.080;7.428;2023-05-14T06:34:40;6.53;;;6.03;;
13185;SDS011;6658;53.080;7.428;2023-05-14T06:37:06;6.53;;;5.93;;
13185;SDS011;6658;53.080;7.428;2023-05-14T06:39:33;7.00;;;6.40;;
13185;SDS011;6658;53.080;7.428;2023-05-14T06:42:00;6.40;;;5.90;;
13185;SDS011;6658;53.080;7.428;2023-05-14T06:44:26;6.63;;;6.03;;
13185;SDS011;6658;53.080;7.428;2023-05-14T06:46:51;6.30;;;5.70;;
13185;SDS011;6658;53.080;7.428;2023-05-14T06:49:17;5.67;;;5.13;;
13185;SDS011;6658;53.080;7.428;2023-05-14T06:51:43;6.73;;;5.90;;
13185;SDS011;6658;53.080;7.428;2023-05-14T06:54:09;6.47;;;5.77;;
13185;SDS011;6658;53.080;7.428;2023-05-14T06:56:35;7.20;;;5.73;;
13185;SDS011;6658;53.080;7.428;2023-05-14T06:59:01;6.10;;;5.60;;
13185;SDS011;6658;53.080;7.428;2023-05-14T07:01:27;6.13;;;5.63;;
13185;SDS011;6658;53.080;7.428;2023-05-14T07:03:53;6.07;;;5.57;;
13185;SDS011;6658;53.080;7.428;2023-05-14T07:06:19;5.67;;;5.27;;
13185;SDS011;6658;53.080;7.428;2023-05-14T07:08:44;7.00;;;5.53;;
13185;SDS011;6658;53.080;7.428;2023-05-14T07:11:10;6.50;;;5.73;;
13185;SDS011;6658;53.080;7.428;2023-05-14T07:13:37;5.93;;;5.43;;
13185;SDS011;6658;53.080;7.428;2023-05-14T07:16:04;5.70;;;5.20;;
13185;SDS011;6658;53.080;7.428;2023-05-14T07:18:30;5.83;;;5.23;;
13185;SDS011;6658;53.080;7.428;2023-05-14T07:20:56;5.80;;;5.30;;
13185;SDS011;6658;53.080;7.428;2023-05-14T07:23:21;5.97;;;5.47;;
13185;SDS011;6658;53.080;7.428;2023-05-14T07:25:47;6.80;;;5.73;;
13185;SDS011;6658;53.080;7.428;2023-05-14T07:28:13;5.53;;;5.03;;
13185;SDS011;6658;53.080;7.428;2023-05-14T07:30:38;6.20;;;5.70;;
13185;SDS011;6658;53.080;7.428;2023-05-14T07:33:04;5.90;;;5.40;;
13185;SDS011;6658;53.080;7.428;2023-05-14T07:35:30;5.40;;;5.00;;
13185;SDS011;6658;53.080;7.428;2023-05-14T07:37:56;5.77;;;5.27;;
13185;SDS011;6658;53.080;7.428;2023-05-14T07:40:22;6.63;;;5.27;;
13185;SDS011;6658;53.080;7.428;2023-05-14T07:42:51;5.87;;;5.27;;
13185;SDS011;6658;53.080;7.428;2023-05-14T07:45:17;5.87;;;5.17;;
13185;SDS011;6658;53.080;7.428;2023-05-14T07:47:42;7.27;;;5.40;;
13185;SDS011;6658;53.080;7.428;2023-05-14T07:50:08;5.80;;;4.80;;
13185;SDS011;6658;53.080;7.428;2023-05-14T07:52:35;5.50;;;5.00;;
13185;SDS011;6658;53.080;7.428;2023-05-14T07:55:01;6.60;;;4.77;;
13185;SDS011;6658;53.080;7.428;2023-05-14T07:57:27;5.40;;;4.90;;
13185;SDS011;6658;53.080;7.428;2023-05-14T07:59:55;5.07;;;4.57;;
13185;SDS011;6658;53.080;7.428;2023-05-14T08:02:21;5.30;;;4.80;;
13185;SDS011;6658;53.080;7.428;2023-05-14T08:04:47;5.20;;;4.70;;
13185;SDS011;6658;53.080;7.428;2023-05-14T08:07:13;6.00;;;4.77;;
13185;SDS011;6658;53.080;7.428;2023-05-14T08:09:38;6.37;;;4.47;;
13185;SDS011;6658;53.080;7.428;2023-05-14T08:12:04;5.20;;;4.80;;
13185;SDS011;6658;53.080;7.428;2023-05-14T08:14:31;4.67;;;4.27;;
13185;SDS011;6658;53.080;7.428;2023-05-14T08:16:57;4.63;;;4.23;;
13185;SDS011;6658;53.080;7.428;2023-05-14T08:19:23;4.97;;;4.43;;
13185;SDS011;6658;53.080;7.428;2023-05-14T08:21:48;4.63;;;4.10;;
13185;SDS011;6658;53.080;7.428;2023-05-14T08:24:15;5.10;;;4.33;;
13185;SDS011;6658;53.080;7.428;2023-05-14T08:26:41;4.73;;;4.23;;
13185;SDS011;6658;53.080;7.428;2023-05-14T08:29:07;4.63;;;3.83;;
13185;SDS011;6658;53.080;7.428;2023-05-14T08:31:33;6.00;;;4.30;;
13185;SDS011;6658;53.080;7.428;2023-05-14T08:33:59;4.50;;;4.10;;
13185;SDS011;6658;53.080;7.428;2023-05-14T08:36:24;4.70;;;4.10;;
13185;SDS011;6658;53.080;7.428;2023-05-14T08:38:50;4.87;;;4.00;;
13185;SDS011;6658;53.080;7.428;2023-05-14T08:41:16;4.83;;;4.07;;
13185;SDS011;6658;53.080;7.428;2023-05-14T08:44:02;6.77;;;4.70;;
13185;SDS011;6658;53.080;7.428;2023-05-14T08:46:37;4.40;;;4.00;;
13185;SDS011;6658;53.080;7.428;2023-05-14T08:49:07;4.90;;;4.50;;
13185;SDS011;6658;53.080;7.428;2023-05-14T08:51:37;5.10;;;4.70;;
13185;SDS011;6658;53.080;7.428;2023-05-14T08:54:04;5.60;;;4.50;;
13185;SDS011;6658;53.080;7.428;2023-05-14T08:56:31;4.37;;;4.03;;
13185;SDS011;6658;53.080;7.428;2023-05-14T08:58:57;7.57;;;4.23;;
13185;SDS011;6658;53.080;7.428;2023-05-14T09:01:24;5.20;;;4.70;;
13185;SDS011;6658;53.080;7.428;2023-05-14T09:03:51;4.80;;;4.30;;
13185;SDS011;6658;53.080;7.428;2023-05-14T09:06:17;4.80;;;4.30;;
13185;SDS011;6658;53.080;7.428;2023-05-14T09:08:45;7.43;;;4.37;;
13185;SDS011;6658;53.080;7.428;2023-05-14T09:11:10;4.73;;;4.30;;
13185;SDS011;6658;53.080;7.428;2023-05-14T09:13:37;4.40;;;4.00;;
13185;SDS011;6658;53.080;7.428;2023-05-14T09:16:03;4.50;;;4.10;;
13185;SDS011;6658;53.080;7.428;2023-05-14T09:18:29;4.23;;;3.87;;
13185;SDS011;6658;53.080;7.428;2023-05-14T09:20:56;4.73;;;3.90;;
13185;SDS011;6658;53.080;7.428;2023-05-14T09:23:24;5.63;;;4.17;;
13185;SDS011;6658;53.080;7.428;2023-05-14T09:25:51;4.60;;;4.20;;
13185;SDS011;6658;53.080;7.428;2023-05-14T09:28:17;5.03;;;4.50;;
13185;SDS011;6658;53.080;7.428;2023-05-14T09:30:46;6.43;;;4.40;;
13185;SDS011;6658;53.080;7.428;2023-05-14T09:33:25;4.87;;;4.40;;
13185;SDS011;6658;53.080;7.428;2023-05-14T09:35:54;4.83;;;4.43;;
13185;SDS011;6658;53.080;7.428;2023-05-14T09:38:31;4.13;;;3.77;;
13185;SDS011;6658;53.080;7.428;2023-05-14T09:40:58;5.40;;;4.07;;
13185;SDS011;6658;53.080;7.428;2023-05-14T09:43:24;4.33;;;3.93;;
13185;SDS011;6658;53.080;7.428;2023-05-14T09:45:51;4.53;;;4.13;;
13185;SDS011;6658;53.080;7.428;2023-05-14T09:48:17;4.33;;;3.87;;
13185;SDS011;6658;53.080;7.428;2023-05-14T09:50:44;4.00;;;3.70;;
13185;SDS011;6658;53.080;7.428;2023-05-14T09:53:10;6.17;;;3.53;;
13185;SDS011;6658;53.080;7.428;2023-05-14T09:55:37;6.60;;;3.33;;
13185;SDS011;6658;53.080;7.428;2023-05-14T09:58:04;3.47;;;2.47;;
13185;SDS011;6658;53.080;7.428;2023-05-14T10:00:33;4.80;;;3.00;;
13185;SDS011;6658;53.080;7.428;2023-05-14T10:03:00;3.20;;;2.90;;
13185;SDS011;6658;53.080;7.428;2023-05-14T10:05:31;4.93;;;3.58;;
13185;SDS011;6658;53.080;7.428;2023-05-14T10:08:04;4.43;;;3.30;;
13185;SDS011;6658;53.080;7.428;2023-05-14T10:10:32;2.83;;;2.63;;
13185;SDS011;6658;53.080;7.428;2023-05-14T10:13:03;3.78;;;2.58;;
13185;SDS011;6658;53.080;7.428;2023-05-14T10:15:42;3.03;;;2.83;;
13185;SDS011;6658;53.080;7.428;2023-05-14T10:18:15;2.38;;;2.17;;
13185;SDS011;6658;53.080;7.428;2023-05-14T10:20:43;2.38;;;2.15;;
13185;SDS011;6658;53.080;7.428;2023-05-14T10:23:12;1.95;;;1.80;;
13185;SDS011;6658;53.080;7.428;2023-05-14T10:25:39;2.22;;;1.95;;
13185;SDS011;6658;53.080;7.428;2023-05-14T10:28:05;2.85;;;2.20;;
13185;SDS011;6658;53.080;7.428;2023-05-14T10:30:31;2.35;;;2.15;;
13185;SDS011;6658;53.080;7.428;2023-05-14T10:33:07;4.55;;;2.88;;
13185;SDS011;6658;53.080;7.428;2023-05-14T10:38:16;2.22;;;1.83;;
13185;SDS011;6658;53.080;7.428;2023-05-14T10:40:46;2.65;;;2.30;;
13185;SDS011;6658;53.080;7.428;2023-05-14T10:43:12;2.25;;;1.95;;
13185;SDS011;6658;53.080;7.428;2023-05-14T10:45:40;4.20;;;2.15;;
13185;SDS011;6658;53.080;7.428;2023-05-14T10:48:08;1.63;;;1.52;;
13185;SDS011;6658;53.080;7.428;2023-05-14T10:50:34;2.55;;;2.05;;
13185;SDS011;6658;53.080;7.428;2023-05-14T10:53:02;3.00;;;1.80;;
13185;SDS011;6658;53.080;7.428;2023-05-14T10:55:37;1.60;;;1.50;;
13185;SDS011;6658;53.080;7.428;2023-05-14T10:58:06;1.67;;;1.58;;
13185;SDS011;6658;53.080;7.428;2023-05-14T11:00:32;2.08;;;1.52;;
13185;SDS011;6658;53.080;7.428;2023-05-14T11:02:59;1.50;;;1.40;;
13185;SDS011;6658;53.080;7.428;2023-05-14T11:05:28;3.75;;;1.50;;
13185;SDS011;6658;53.080;7.428;2023-05-14T11:07:55;2.53;;;1.80;;
13185;SDS011;6658;53.080;7.428;2023-05-14T11:10:23;4.80;;;2.05;;
13185;SDS011;6658;53.080;7.428;2023-05-14T11:12:54;2.03;;;1.83;;
13185;SDS011;6658;53.080;7.428;2023-05-14T11:15:22;2.35;;;1.90;;
13185;SDS011;6658;53.080;7.428;2023-05-14T11:17:50;3.30;;;2.00;;
13185;SDS011;6658;53.080;7.428;2023-05-14T11:20:17;2.10;;;1.92;;
13185;SDS011;6658;53.080;7.428;2023-05-14T11:22:44;3.10;;;1.63;;
13185;SDS011;6658;53.080;7.428;2023-05-14T11:25:11;5.43;;;2.20;;
13185;SDS011;6658;53.080;7.428;2023-05-14T11:27:38;2.90;;;2.03;;
13185;SDS011;6658;53.080;7.428;2023-05-14T11:30:15;4.13;;;2.03;;
13185;SDS011;6658;53.080;7.428;2023-05-14T11:32:44;1.95;;;1.80;;
13185;SDS011;6658;53.080;7.428;2023-05-14T11:35:11;2.97;;;2.17;;
13185;SDS011;6658;53.080;7.428;2023-05-14T11:37:37;2.38;;;1.92;;
13185;SDS011;6658;53.080;7.428;2023-05-14T11:40:07;1.67;;;1.58;;
13185;SDS011;6658;53.080;7.428;2023-05-14T11:42:42;1.65;;;1.55;;
13185;SDS011;6658;53.080;7.428;2023-05-14T11:45:11;2.22;;;2.03;;
13185;SDS011;6658;53.080;7.428;2023-05-14T11:47:37;1.98;;;1.80;;
13185;SDS011;6658;53.080;7.428;2023-05-14T11:50:05;1.73;;;1.58;;
13185;SDS011;6658;53.080;7.428;2023-05-14T11:52:35;2.33;;;1.90;;
13185;SDS011;6658;53.080;7.428;2023-05-14T11:55:05;2.38;;;1.90;;
13185;SDS011;6658;53.080;7.428;2023-05-14T11:57:34;2.05;;;1.95;;
13185;SDS011;6658;53.080;7.428;2023-05-14T12:00:00;2.63;;;1.85;;
13185;SDS011;6658;53.080;7.428;2023-05-14T12:02:26;1.77;;;1.67;;
13185;SDS011;6658;53.080;7.428;2023-05-14T12:04:53;2.72;;;1.70;;
13185;SDS011;6658;53.080;7.428;2023-05-14T12:07:19;2.13;;;1.92;;
13185;SDS011;6658;53.080;7.428;2023-05-14T12:09:45;1.90;;;1.80;;
13185;SDS011;6658;53.080;7.428;2023-05-14T12:12:20;2.20;;;2.00;;
13185;SDS011;6658;53.080;7.428;2023-05-14T12:14:46;2.17;;;1.88;;
13185;SDS011;6658;53.080;7.428;2023-05-14T12:17:14;3.28;;;1.83;;
13185;SDS011;6658;53.080;7.428;2023-05-14T12:19:41;2.17;;;2.00;;
13185;SDS011;6658;53.080;7.428;2023-05-14T12:22:08;2.72;;;2.17;;
13185;SDS011;6658;53.080;7.428;2023-05-14T12:24:35;4.03;;;2.05;;
13185;SDS011;6658;53.080;7.428;2023-05-14T12:27:01;2.63;;;1.80;;
13185;SDS011;6658;53.080;7.428;2023-05-14T12:29:27;2.80;;;2.03;;
13185;SDS011;6658;53.080;7.428;2023-05-14T12:31:55;1.95;;;1.85;;
13185;SDS011;6658;53.080;7.428;2023-05-14T12:34:28;2.17;;;1.98;;
13185;SDS011;6658;53.080;7.428;2023-05-14T12:36:53;2.07;;;1.83;;
13185;SDS011;6658;53.080;7.428;2023-05-14T12:39:19;3.38;;;2.05;;
13185;SDS011;6658;53.080;7.428;2023-05-14T12:41:45;4.57;;;1.85;;
13185;SDS011;6658;53.080;7.428;2023-05-14T12:44:10;1.85;;;1.75;;
13185;SDS011;6658;53.080;7.428;2023-05-14T12:46:36;2.40;;;2.20;;
13185;SDS011;6658;53.080;7.428;2023-05-14T12:49:02;3.15;;;1.75;;
13185;SDS011;6658;53.080;7.428;2023-05-14T12:51:28;1.98;;;1.83;;
13185;SDS011;6658;53.080;7.428;2023-05-14T12:53:54;1.95;;;1.80;;
13185;SDS011;6658;53.080;7.428;2023-05-14T12:56:19;2.70;;;1.92;;
13185;SDS011;6658;53.080;7.428;2023-05-14T12:58:51;1.80;;;1.70;;
13185;SDS011;6658;53.080;7.428;2023-05-14T13:01:18;3.33;;;2.00;;
13185;SDS011;6658;53.080;7.428;2023-05-14T13:03:43;4.57;;;1.88;;
13185;SDS011;6658;53.080;7.428;2023-05-14T13:06:09;2.08;;;1.85;;
13185;SDS011;6658;53.080;7.428;2023-05-14T13:08:35;4.90;;;2.03;;
13185;SDS011;6658;53.080;7.428;2023-05-14T13:11:00;1.93;;;1.77;;
13185;SDS011;6658;53.080;7.428;2023-05-14T13:13:26;2.17;;;2.03;;
13185;SDS011;6658;53.080;7.428;2023-05-14T13:15:52;2.53;;;2.07;;
13185;SDS011;6658;53.080;7.428;2023-05-14T13:18:18;2.07;;;1.87;;
13185;SDS011;6658;53.080;7.428;2023-05-14T13:20:44;2.17;;;2.00;;
13185;SDS011;6658;53.080;7.428;2023-05-14T13:23:11;2.80;;;1.80;;
13185;SDS011;6658;53.080;7.428;2023-05-14T13:25:37;1.97;;;1.83;;
13185;SDS011;6658;53.080;7.428;2023-05-14T13:28:03;2.60;;;1.83;;
13185;SDS011;6658;53.080;7.428;2023-05-14T13:30:29;1.70;;;1.60;;
13185;SDS011;6658;53.080;7.428;2023-05-14T13:32:56;5.43;;;2.23;;
13185;SDS011;6658;53.080;7.428;2023-05-14T13:35:22;2.23;;;1.90;;
13185;SDS011;6658;53.080;7.428;2023-05-14T13:37:48;3.70;;;1.73;;
13185;SDS011;6658;53.080;7.428;2023-05-14T13:40:13;1.90;;;1.80;;
13185;SDS011;6658;53.080;7.428;2023-05-14T13:42:39;3.43;;;2.07;;
13185;SDS011;6658;53.080;7.428;2023-05-14T13:45:05;2.37;;;2.03;;
13185;SDS011;6658;53.080;7.428;2023-05-14T13:47:31;3.57;;;1.73;;
13185;SDS011;6658;53.080;7.428;2023-05-14T13:49:57;4.33;;;2.20;;
13185;SDS011;6658;53.080;7.428;2023-05-14T13:52:23;2.37;;;2.17;;
13185;SDS011;6658;53.080;7.428;2023-05-14T13:54:49;2.50;;;2.10;;
13185;SDS011;6658;53.080;7.428;2023-05-14T13:57:15;2.47;;;1.97;;
13185;SDS011;6658;53.080;7.428;2023-05-14T13:59:40;2.60;;;1.90;;
13185;SDS011;6658;53.080;7.428;2023-05-14T14:02:07;3.00;;;1.80;;
13185;SDS011;6658;53.080;7.428;2023-05-14T14:04:33;2.10;;;1.90;;
13185;SDS011;6658;53.080;7.428;2023-05-14T14:06:58;2.70;;;1.73;;
13185;SDS011;6658;53.080;7.428;2023-05-14T14:09:24;3.33;;;2.10;;
13185;SDS011;6658;53.080;7.428;2023-05-14T14:11:50;2.83;;;2.10;;
13185;SDS011;6658;53.080;7.428;2023-05-14T14:14:16;3.63;;;2.00;;
13185;SDS011;6658;53.080;7.428;2023-05-14T14:16:42;2.40;;;2.20;;
13185;SDS011;6658;53.080;7.428;2023-05-14T14:19:08;3.53;;;2.00;;
13185;SDS011;6658;53.080;7.428;2023-05-14T14:21:34;2.03;;;1.93;;
13185;SDS011;6658;53.080;7.428;2023-05-14T14:24:00;2.53;;;1.90;;
13185;SDS011;6658;53.080;7.428;2023-05-14T14:26:26;3.60;;;2.83;;
13185;SDS011;6658;53.080;7.428;2023-05-14T14:28:53;3.73;;;2.03;;
13185;SDS011;6658;53.080;7.428;2023-05-14T14:31:19;3.13;;;2.20;;
13185;SDS011;6658;53.080;7.428;2023-05-14T14:33:45;2.40;;;2.13;;
13185;SDS011;6658;53.080;7.428;2023-05-14T14:36:11;2.17;;;1.97;;
13185;SDS011;6658;53.080;7.428;2023-05-14T14:38:37;3.20;;;2.60;;
13185;SDS011;6658;53.080;7.428;2023-05-14T14:41:03;2.40;;;2.10;;
13185;SDS011;6658;53.080;7.428;2023-05-14T14:43:32;3.80;;;2.30;;
13185;SDS011;6658;53.080;7.428;2023-05-14T14:45:58;3.03;;;2.00;;
13185;SDS011;6658;53.080;7.428;2023-05-14T14:48:31;4.40;;;2.30;;
13185;SDS011;6658;53.080;7.428;2023-05-14T14:50:58;2.00;;;1.90;;
13185;SDS011;6658;53.080;7.428;2023-05-14T14:53:28;2.27;;;1.90;;
13185;SDS011;6658;53.080;7.428;2023-05-14T14:55:54;3.17;;;2.20;;
13185;SDS011;6658;53.080;7.428;2023-05-14T14:58:21;2.33;;;2.13;;
13185;SDS011;6658;53.080;7.428;2023-05-14T15:00:48;2.20;;;2.00;;
13185;SDS011;6658;53.080;7.428;2023-05-14T15:03:16;3.23;;;2.23;;